Colorado Star — 9HA2189 — position and weather

sailwx.info

Track history (hours):
 
Tides and Currents Weather Stations Pressure Air Temp Water Temp Dewpoint Dewpoint Depression Visibility Wind Speed Wind Dir Waves Ship Positions

Colorado Star

Last reported at 2016-May-01 21:14 UTC. Time now 2016-May-01 23:09 UTC.
Position N 50°50' E 001°01'.

Length 128 m; draft 8.5 m.

Type: Ship. MMSI: 248127000.

Date/timePositionNaut miles runAvg speedWind from/ knotsBaromVisibWave heightAir tempDewpointWater temp
2016-May-01 21:14N 50°50' E 001°01'811.2
2016-May-01 20:33N 50°55' E 001°10'1010.5
2016-May-01 19:34N 51°02' E 001°23'1010.1
2016-May-01 18:33N 51°08' E 001°36'1110.6
2016-May-01 17:34N 51°16' E 001°47'1211.8
2016-May-01 16:34N 51°26' E 001°56'1312.6
2016-May-01 15:33N 51°36' E 002°09'1312.7
2016-May-01 14:33N 51°45' E 002°24'3511.6
2016-May-01 11:31N 52°03' E 003°13'1610.7
2016-May-01 10:03N 52°03' E 003°38'510.0
2016-May-01 09:34N 52°03' E 003°46'9 9.2
2016-May-01 08:34N 52°00' E 004°01'9 8.9
2016-May-01 07:34N 51°55' E 004°13'0 0.3
2016-May-01 06:32N 51°55' E 004°13'0 0.0
2016-May-01 05:32N 51°55' E 004°13'0 0.0
2016-May-01 04:32N 51°55' E 004°13'0 0.0
2016-May-01 03:32N 51°55' E 004°13'0 0.0
2016-May-01 02:32N 51°55' E 004°13'0 0.0
2016-May-01 01:32N 51°55' E 004°13'0 0.0
2016-May-01 00:32N 51°55' E 004°13'0 0.0
2016-Apr-30 23:32N 51°55' E 004°13'0 0.0
2016-Apr-30 22:32N 51°55' E 004°13'0 0.0
2016-Apr-30 21:32N 51°55' E 004°13'0 0.0
2016-Apr-30 20:32N 51°55' E 004°13'0 0.0
2016-Apr-30 19:32N 51°55' E 004°13'0 0.0
2016-Apr-30 18:32N 51°55' E 004°13'0 0.0
2016-Apr-30 17:32N 51°55' E 004°13'0 0.0
2016-Apr-30 16:32N 51°55' E 004°13'0 0.0
2016-Apr-30 15:32N 51°55' E 004°13'0 0.0
2016-Apr-30 14:32N 51°55' E 004°13'0 0.0
2016-Apr-30 13:32N 51°55' E 004°13'0 0.0
2016-Apr-30 12:32N 51°55' E 004°13'0 0.0
2016-Apr-30 11:32N 51°55' E 004°13'0 0.0
2016-Apr-30 10:29N 51°55' E 004°13'0 0.0
2016-Apr-30 09:29N 51°55' E 004°13'1 0.6
2016-Apr-30 08:33N 51°56' E 004°12'9 8.6
2016-Apr-30 07:33N 51°60' E 004°00'1110.8
2016-Apr-30 06:33N 51°58' E 003°42'11 1.0
2016-Apr-29 20:12N 51°53' E 003°28'0 0.0
2016-Apr-29 13:24N 51°53' E 003°28'0 0.0
2016-Apr-29 12:33N 51°53' E 003°28'0 0.0
2016-Apr-29 11:33N 51°53' E 003°28'0 0.0
2016-Apr-29 10:33N 51°53' E 003°28'0 0.0
2016-Apr-29 09:33N 51°53' E 003°28'53 2.0
2016-Apr-28 07:29N 51°28' E 002°13'1112.1
2016-Apr-28 06:33N 51°17' E 002°06'1313.0
2016-Apr-28 05:33N 51°09' E 001°50'1514.7
2016-Apr-28 04:33N 50°59' E 001°33'1514.9
2016-Apr-28 03:33N 50°45' E 001°22'4213.7
2016-Apr-28 00:29N 50°24' E 000°25'1414.8
2016-Apr-27 23:33N 50°21' E 000°04'1514.7
2016-Apr-27 22:33N 50°17' W 000°18'9711.7
2016-Apr-27 14:19N 49°52' W 002°44'911.7
2016-Apr-27 13:33N 49°51' W 002°57'1212.2
2016-Apr-27 12:33N 49°56' W 003°15'1312.6
2016-Apr-27 11:33N 50°01' W 003°33'1313.0
2016-Apr-27 10:33N 50°06' W 003°51'1212.5
2016-Apr-27 09:33N 50°14' W 004°06'7 7.3
2016-Apr-27 08:33N 50°22' W 004°07'0 0.0
2016-Apr-26 07:26N 50°22' W 004°07'1 1.2
2016-Apr-26 06:33N 50°21' W 004°08'2 2.1
2016-Apr-26 05:31N 50°19' W 004°09'0 0.0
2016-Apr-25 22:22N 50°19' W 004°09'0 0.0
2016-Apr-25 21:10N 50°19' W 004°09'0 0.0
2016-Apr-25 20:28N 50°19' W 004°09'0 0.1
2016-Apr-25 19:28N 50°19' W 004°09'4 4.3
2016-Apr-25 18:34N 50°16' W 004°06'1010.1
2016-Apr-25 17:34N 50°10' W 003°53'1211.8
2016-Apr-25 16:33N 50°06' W 003°35'1212.4
2016-Apr-25 15:33N 50°04' W 003°17'1312.8
2016-Apr-25 14:33N 50°01' W 002°57'9910.9
2016-Apr-25 05:33N 50°27' W 000°29'1312.8
2016-Apr-25 04:33N 50°30' W 000°09'1312.7
2016-Apr-25 03:33N 50°34' E 000°10'1312.8
2016-Apr-25 02:33N 50°37' E 000°29'3311.1
2016-Apr-24 23:33N 50°56' E 001°12'1211.7
2016-Apr-24 22:33N 51°04' E 001°26'1414.1
2016-Apr-24 21:33N 51°13' E 001°44'1414.2
2016-Apr-24 20:33N 51°25' E 001°54'1312.8
2016-Apr-24 19:33N 51°35' E 002°08'9011.2
2016-Apr-24 11:33N 52°31' E 004°02'1110.7
2016-Apr-24 10:33N 52°30' E 004°19'1010.2
2016-Apr-24 09:33N 52°28' E 004°35'3 3.3
2016-Apr-24 08:33N 52°27' E 004°41'3 3.3
2016-Apr-24 07:31N 52°25' E 004°45'0 0.0
2016-Apr-24 06:31N 52°25' E 004°45'0 0.0
2016-Apr-24 05:31N 52°25' E 004°45'0 0.0
2016-Apr-24 04:31N 52°25' E 004°45'0 0.0
2016-Apr-24 03:31N 52°25' E 004°45'0 0.0
2016-Apr-24 02:28N 52°25' E 004°45'0 0.0
2016-Apr-24 01:31N 52°25' E 004°45'0 0.0
2016-Apr-24 00:31N 52°25' E 004°45'0 0.0
2016-Apr-23 23:28N 52°25' E 004°45'0 0.0
2016-Apr-23 22:31N 52°25' E 004°45'0 0.0
2016-Apr-23 21:31N 52°25' E 004°45'0 0.0
2016-Apr-23 20:31N 52°25' E 004°45'0 0.0
2016-Apr-23 19:31N 52°25' E 004°45'0 0.0
2016-Apr-23 18:28N 52°25' E 004°45'0 0.0
2016-Apr-23 17:31N 52°25' E 004°45'0 0.0
2016-Apr-23 16:31N 52°25' E 004°45'0 0.0
2016-Apr-23 15:28N 52°25' E 004°45'0 0.0
2016-Apr-23 14:31N 52°25' E 004°45'0 0.0
2016-Apr-23 13:31N 52°25' E 004°45'0 0.0
2016-Apr-23 12:28N 52°25' E 004°45'0 0.0
2016-Apr-23 11:31N 52°25' E 004°45'0 0.0
2016-Apr-23 10:31N 52°25' E 004°45'0 0.0
2016-Apr-23 09:28N 52°25' E 004°45'0 0.4
2016-Apr-23 08:33N 52°25' E 004°45'6 6.1
2016-Apr-23 07:34N 52°28' E 004°36'0 0.0
2016-Apr-23 06:34N 52°28' E 004°36'0 0.0
2016-Apr-23 05:34N 52°28' E 004°36'3 2.6
2016-Apr-23 04:34N 52°28' E 004°32'9 8.9
2016-Apr-23 03:33N 52°29' E 004°17'9 9.4
2016-Apr-23 02:33N 52°28' E 004°02'4 3.4
2016-Apr-23 01:31N 52°25' E 003°57'0 0.0
2016-Apr-23 00:28N 52°25' E 003°57'0 0.0
2016-Apr-22 23:28N 52°25' E 003°57'0 0.0
2016-Apr-22 22:28N 52°25' E 003°57'0 0.0
2016-Apr-22 21:28N 52°25' E 003°57'0 0.0
2016-Apr-22 20:31N 52°25' E 003°57'0 0.0
2016-Apr-22 19:22N 52°25' E 003°57'0 0.0
2016-Apr-22 18:28N 52°25' E 003°57'0 0.2
2016-Apr-22 17:30N 52°25' E 003°58'3 2.9
2016-Apr-22 16:33N 52°27' E 003°54'8213.0
2016-Apr-22 10:12N 51°31' E 002°16'711.4
2016-Apr-22 09:33N 51°24' E 002°11'1110.8
2016-Apr-22 08:33N 51°14' E 002°03'1010.0
2016-Apr-22 07:33N 51°09' E 001°50'10 9.7
2016-Apr-22 06:33N 51°02' E 001°39'10 9.9
2016-Apr-22 05:33N 50°55' E 001°28'1110.7
2016-Apr-22 04:33N 50°45' E 001°22'1411.4
2016-Apr-22 03:22N 50°35' E 001°08'2511.3
2016-Apr-22 01:11N 50°25' E 000°32'711.4
2016-Apr-22 00:34N 50°23' E 000°21'1211.6
2016-Apr-21 23:34N 50°20' E 000°04'1212.3
2016-Apr-21 22:34N 50°17' W 000°15'1312.6
2016-Apr-21 21:33N 50°13' W 000°34'  
Track history (hours):
 
Tides and Currents Weather Stations Pressure Air Temp Water Temp Dewpoint Dewpoint Depression Visibility Wind Speed Wind Dir Waves Ship Positions

Colorado Star

Last reported at 2016-May-01 21:14 UTC. Time now 2016-May-01 23:09 UTC.
Position N 50°50' E 001°01'.

Length 128 m; draft 8.5 m.

Type: Ship. MMSI: 248127000.

Date/timePositionNaut miles runAvg speedWind from/ knotsBaromVisibWave heightAir tempDewpointWater temp
2016-May-01 21:14N 50°50' E 001°01'811.2
2016-May-01 20:33N 50°55' E 001°10'1010.5
2016-May-01 19:34N 51°02' E 001°23'1010.1
2016-May-01 18:33N 51°08' E 001°36'1110.6
2016-May-01 17:34N 51°16' E 001°47'1211.8
2016-May-01 16:34N 51°26' E 001°56'1312.6
2016-May-01 15:33N 51°36' E 002°09'1312.7
2016-May-01 14:33N 51°45' E 002°24'3511.6
2016-May-01 11:31N 52°03' E 003°13'1610.7
2016-May-01 10:03N 52°03' E 003°38'510.0
2016-May-01 09:34N 52°03' E 003°46'9 9.2
2016-May-01 08:34N 52°00' E 004°01'9 8.9
2016-May-01 07:34N 51°55' E 004°13'0 0.3
2016-May-01 06:32N 51°55' E 004°13'0 0.0
2016-May-01 05:32N 51°55' E 004°13'0 0.0
2016-May-01 04:32N 51°55' E 004°13'0 0.0
2016-May-01 03:32N 51°55' E 004°13'0 0.0
2016-May-01 02:32N 51°55' E 004°13'0 0.0
2016-May-01 01:32N 51°55' E 004°13'0 0.0
2016-May-01 00:32N 51°55' E 004°13'0 0.0
2016-Apr-30 23:32N 51°55' E 004°13'0 0.0
2016-Apr-30 22:32N 51°55' E 004°13'0 0.0
2016-Apr-30 21:32N 51°55' E 004°13'0 0.0
2016-Apr-30 20:32N 51°55' E 004°13'0 0.0
2016-Apr-30 19:32N 51°55' E 004°13'0 0.0
2016-Apr-30 18:32N 51°55' E 004°13'0 0.0
2016-Apr-30 17:32N 51°55' E 004°13'0 0.0
2016-Apr-30 16:32N 51°55' E 004°13'0 0.0
2016-Apr-30 15:32N 51°55' E 004°13'0 0.0
2016-Apr-30 14:32N 51°55' E 004°13'0 0.0
2016-Apr-30 13:32N 51°55' E 004°13'0 0.0
2016-Apr-30 12:32N 51°55' E 004°13'0 0.0
2016-Apr-30 11:32N 51°55' E 004°13'0 0.0
2016-Apr-30 10:29N 51°55' E 004°13'0 0.0
2016-Apr-30 09:29N 51°55' E 004°13'1 0.6
2016-Apr-30 08:33N 51°56' E 004°12'9 8.6
2016-Apr-30 07:33N 51°60' E 004°00'1110.8
2016-Apr-30 06:33N 51°58' E 003°42'11 1.0
2016-Apr-29 20:12N 51°53' E 003°28'0 0.0
2016-Apr-29 13:24N 51°53' E 003°28'0 0.0
2016-Apr-29 12:33N 51°53' E 003°28'0 0.0
2016-Apr-29 11:33N 51°53' E 003°28'0 0.0
2016-Apr-29 10:33N 51°53' E 003°28'0 0.0
2016-Apr-29 09:33N 51°53' E 003°28'53 2.0
2016-Apr-28 07:29N 51°28' E 002°13'1112.1
2016-Apr-28 06:33N 51°17' E 002°06'1313.0
2016-Apr-28 05:33N 51°09' E 001°50'1514.7
2016-Apr-28 04:33N 50°59' E 001°33'1514.9
2016-Apr-28 03:33N 50°45' E 001°22'4213.7
2016-Apr-28 00:29N 50°24' E 000°25'1414.8
2016-Apr-27 23:33N 50°21' E 000°04'1514.7
2016-Apr-27 22:33N 50°17' W 000°18'9711.7
2016-Apr-27 14:19N 49°52' W 002°44'911.7
2016-Apr-27 13:33N 49°51' W 002°57'1212.2
2016-Apr-27 12:33N 49°56' W 003°15'1312.6
2016-Apr-27 11:33N 50°01' W 003°33'1313.0
2016-Apr-27 10:33N 50°06' W 003°51'1212.5
2016-Apr-27 09:33N 50°14' W 004°06'7 7.3
2016-Apr-27 08:33N 50°22' W 004°07'0 0.0
2016-Apr-26 07:26N 50°22' W 004°07'1 1.2
2016-Apr-26 06:33N 50°21' W 004°08'2 2.1
2016-Apr-26 05:31N 50°19' W 004°09'0 0.0
2016-Apr-25 22:22N 50°19' W 004°09'0 0.0
2016-Apr-25 21:10N 50°19' W 004°09'0 0.0
2016-Apr-25 20:28N 50°19' W 004°09'0 0.1
2016-Apr-25 19:28N 50°19' W 004°09'4 4.3
2016-Apr-25 18:34N 50°16' W 004°06'1010.1
2016-Apr-25 17:34N 50°10' W 003°53'1211.8
2016-Apr-25 16:33N 50°06' W 003°35'1212.4
2016-Apr-25 15:33N 50°04' W 003°17'1312.8
2016-Apr-25 14:33N 50°01' W 002°57'9910.9
2016-Apr-25 05:33N 50°27' W 000°29'1312.8
2016-Apr-25 04:33N 50°30' W 000°09'1312.7
2016-Apr-25 03:33N 50°34' E 000°10'1312.8
2016-Apr-25 02:33N 50°37' E 000°29'3311.1
2016-Apr-24 23:33N 50°56' E 001°12'1211.7
2016-Apr-24 22:33N 51°04' E 001°26'1414.1
2016-Apr-24 21:33N 51°13' E 001°44'1414.2
2016-Apr-24 20:33N 51°25' E 001°54'1312.8
2016-Apr-24 19:33N 51°35' E 002°08'9011.2
2016-Apr-24 11:33N 52°31' E 004°02'1110.7
2016-Apr-24 10:33N 52°30' E 004°19'1010.2
2016-Apr-24 09:33N 52°28' E 004°35'3 3.3
2016-Apr-24 08:33N 52°27' E 004°41'3 3.3
2016-Apr-24 07:31N 52°25' E 004°45'0 0.0
2016-Apr-24 06:31N 52°25' E 004°45'0 0.0
2016-Apr-24 05:31N 52°25' E 004°45'0 0.0
2016-Apr-24 04:31N 52°25' E 004°45'0 0.0
2016-Apr-24 03:31N 52°25' E 004°45'0 0.0
2016-Apr-24 02:28N 52°25' E 004°45'0 0.0
2016-Apr-24 01:31N 52°25' E 004°45'0 0.0
2016-Apr-24 00:31N 52°25' E 004°45'0 0.0
2016-Apr-23 23:28N 52°25' E 004°45'0 0.0
2016-Apr-23 22:31N 52°25' E 004°45'0 0.0
2016-Apr-23 21:31N 52°25' E 004°45'0 0.0
2016-Apr-23 20:31N 52°25' E 004°45'0 0.0
2016-Apr-23 19:31N 52°25' E 004°45'0 0.0
2016-Apr-23 18:28N 52°25' E 004°45'0 0.0
2016-Apr-23 17:31N 52°25' E 004°45'0 0.0
2016-Apr-23 16:31N 52°25' E 004°45'0 0.0
2016-Apr-23 15:28N 52°25' E 004°45'0 0.0
2016-Apr-23 14:31N 52°25' E 004°45'0 0.0
2016-Apr-23 13:31N 52°25' E 004°45'0 0.0
2016-Apr-23 12:28N 52°25' E 004°45'0 0.0
2016-Apr-23 11:31N 52°25' E 004°45'0 0.0
2016-Apr-23 10:31N 52°25' E 004°45'0 0.0
2016-Apr-23 09:28N 52°25' E 004°45'0 0.4
2016-Apr-23 08:33N 52°25' E 004°45'6 6.1
2016-Apr-23 07:34N 52°28' E 004°36'0 0.0
2016-Apr-23 06:34N 52°28' E 004°36'0 0.0
2016-Apr-23 05:34N 52°28' E 004°36'3 2.6
2016-Apr-23 04:34N 52°28' E 004°32'9 8.9
2016-Apr-23 03:33N 52°29' E 004°17'9 9.4
2016-Apr-23 02:33N 52°28' E 004°02'4 3.4
2016-Apr-23 01:31N 52°25' E 003°57'0 0.0
2016-Apr-23 00:28N 52°25' E 003°57'0 0.0
2016-Apr-22 23:28N 52°25' E 003°57'0 0.0
2016-Apr-22 22:28N 52°25' E 003°57'0 0.0
2016-Apr-22 21:28N 52°25' E 003°57'0 0.0
2016-Apr-22 20:31N 52°25' E 003°57'0 0.0
2016-Apr-22 19:22N 52°25' E 003°57'0 0.0
2016-Apr-22 18:28N 52°25' E 003°57'0 0.2
2016-Apr-22 17:30N 52°25' E 003°58'3 2.9
2016-Apr-22 16:33N 52°27' E 003°54'8213.0
2016-Apr-22 10:12N 51°31' E 002°16'711.4
2016-Apr-22 09:33N 51°24' E 002°11'1110.8
2016-Apr-22 08:33N 51°14' E 002°03'1010.0
2016-Apr-22 07:33N 51°09' E 001°50'10 9.7
2016-Apr-22 06:33N 51°02' E 001°39'10 9.9
2016-Apr-22 05:33N 50°55' E 001°28'1110.7
2016-Apr-22 04:33N 50°45' E 001°22'1411.4
2016-Apr-22 03:22N 50°35' E 001°08'2511.3
2016-Apr-22 01:11N 50°25' E 000°32'711.4
2016-Apr-22 00:34N 50°23' E 000°21'1211.6
2016-Apr-21 23:34N 50°20' E 000°04'1212.3
2016-Apr-21 22:34N 50°17' W 000°15'1312.6
2016-Apr-21 21:33N 50°13' W 000°34'  

Dump ship's entire track history